KGVT/GVT METAR and TAF weather

Enter ICAO airport designator
Station Type Date Time Source
KGVT METAR 2019/11/14 03:50 UTC NOAA

KGVT 140350Z AUTO 15009KT 10SM OVC038 07/M01 A3017 RMK AO2


Station Type Date Time Source
KGVT Decoded METAR 2019/11/14 03:50 UTC NOAA

Greenville / Majors, TX, United States (KGVT) 33-04N 096-04W
Nov 13, 2019 - 10:50 PM EST / 2019.11.14 0350 UTC
Wind: from the SSE (150 degrees) at 10 MPH (9 KT):0
Visibility: 10 mile(s):0
Sky conditions: overcast
Temperature: 44 F (7 C)
Dew Point: 30 F (-1 C)
Relative Humidity: 56%
Pressure (altimeter): 30.17 in. Hg (1021 hPa)
ob: KGVT 140350Z AUTO 15009KT 10SM OVC038 07/M01 A3017 RMK AO2
cycle: 4

Station Type Date Time Source
KGVT TAF UTC NOAA

Error!

Example: see airport list